Time;durP1;ratioP1;P1;durP2;ratioP2;P2;SDS_P1;SDS_P2;PMS_P1;PMS_P2;Temp;Humidity;BMP_temperature;BMP_pressure;BME280_temperature;BME280_humidity;BME280_pressure;Samples;Min_cycle;Max_cycle;Signal;HPM_P1;HPM_P2
2021/07/07 05:54:24;;;;;;;4.80;1.90;;;;;;;;;;10439793;27;1997867;-84
2021/07/07 05:59:27;;;;;;;7.40;1.92;;;;;;;;;;10485644;28;20029;-86
2021/07/07 07:06:38;;;;;;;6.75;1.90;;;;;;;;;;10433263;28;20041;-86
2021/07/07 07:11:42;;;;;;;4.38;1.70;;;;;;;;;;10414816;28;20063;-83
2021/07/07 07:16:49;;;;;;;5.22;1.65;;;;;;;;;;10415867;28;20116;-83
2021/07/07 07:21:53;;;;;;;4.07;1.73;;;;;;;;;;10417770;28;20125;-85
2021/07/07 07:27:02;;;;;;;4.25;1.98;;;;;;;;;;10419104;28;20093;-85
2021/07/07 07:32:03;;;;;;;;;;;;;;;;;;10423686;28;20483;-83
2021/07/07 07:37:05;;;;;;;8.13;2.72;;;;;;;;;;10423456;28;19952;-84
2021/07/07 07:42:16;;;;;;;5.65;2.10;;;;;;;;;;10437721;28;20109;-83
2021/07/07 07:47:17;;;;;;;5.80;1.98;;;;;;;;;;10440504;28;20021;-84
2021/07/07 07:52:18;;;;;;;6.80;1.80;;;;;;;;;;10419253;28;20105;-83
2021/07/07 07:57:19;;;;;;;5.78;1.92;;;;;;;;;;10418351;28;20483;-83
2021/07/07 08:02:34;;;;;;;4.88;1.83;;;;;;;;;;10435995;28;20068;-82
2021/07/07 08:08:03;;;;;;;10.35;6.22;;;;;;;;;;10410559;28;20018;-83
2021/07/07 08:13:42;;;;;;;5.60;2.63;;;;;;;;;;10408215;28;20460;-83
2021/07/07 08:19:14;;;;;;;4.90;2.00;;;;;;;;;;10407910;28;20033;-84
2021/07/07 08:24:16;;;;;;;5.22;1.90;;;;;;;;;;10410327;28;20112;-83
2021/07/07 08:29:18;;;;;;;4.60;1.85;;;;;;;;;;10407449;28;20034;-84
2021/07/07 08:34:24;;;;;;;6.10;2.00;;;;;;;;;;10408985;28;20018;-85
2021/07/07 08:45:32;;;;;;;7.47;2.42;;;;;;;;;;10435947;28;20025;-83
2021/07/07 08:50:42;;;;;;;5.80;2.55;;;;;;;;;;10429180;28;20391;-83
2021/07/07 08:56:03;;;;;;;6.25;1.90;;;;;;;;;;10395274;28;20068;-85
2021/07/07 09:01:04;;;;;;;6.65;3.50;;;;;;;;;;10416589;28;20022;-85
2021/07/07 09:06:20;;;;;;;7.13;2.83;;;;;;;;;;10416181;28;20499;-85
2021/07/07 09:11:23;;;;;;;6.05;2.20;;;;;;;;;;10399439;28;20056;-84
2021/07/07 09:16:51;;;;;;;4.38;1.70;;;;;;;;;;10408374;28;20029;-85
2021/07/07 09:21:53;;;;;;;6.00;2.30;;;;;;;;;;10406231;28;20053;-84
2021/07/07 09:27:01;;;;;;;5.05;2.40;;;;;;;;;;10406482;28;20025;-84
2021/07/07 09:32:15;;;;;;;3.60;2.17;;;;;;;;;;10427663;28;20104;-85
2021/07/07 09:37:45;;;;;;;4.65;1.85;;;;;;;;;;10427679;28;20041;-84
2021/07/07 09:42:54;;;;;;;5.28;1.88;;;;;;;;;;10403866;28;20045;-84
2021/07/07 09:48:01;;;;;;;5.70;2.08;;;;;;;;;;10425230;28;20103;-87
2021/07/07 09:53:01;;;;;;;5.43;1.83;;;;;;;;;;10407680;28;20059;-84
2021/07/07 09:58:25;;;;;;;5.32;2.05;;;;;;;;;;10406114;28;20029;-86
2021/07/07 10:03:40;;;;;;;5.47;2.47;;;;;;;;;;10415234;28;20110;-85
2021/07/07 10:08:51;;;;;;;3.88;2.03;;;;;;;;;;10430915;28;20049;-85
2021/07/07 10:19:31;;;;;;;7.35;1.90;;;;;;;;;;10438219;28;20089;-85
2021/07/07 10:25:08;;;;;;;5.28;2.03;;;;;;;;;;10407210;28;20037;-84
2021/07/07 10:30:09;;;;;;;7.65;1.75;;;;;;;;;;10420949;28;20494;-84
2021/07/07 10:35:50;;;;;;;5.35;1.98;;;;;;;;;;10439335;28;20089;-85
2021/07/07 10:41:09;;;;;;;6.18;2.15;;;;;;;;;;10446764;28;20033;-85
2021/07/07 10:46:50;;;;;;;6.22;2.08;;;;;;;;;;10445641;28;20017;-85
2021/07/07 10:51:57;;;;;;;3.30;1.88;;;;;;;;;;10344037;28;20083;-82
2021/07/07 10:57:10;;;;;;;4.95;2.00;;;;;;;;;;10461929;28;20032;-83
2021/07/07 11:02:28;;;;;;;5.35;1.83;;;;;;;;;;10440394;28;20026;-84
2021/07/07 11:07:32;;;;;;;5.80;2.17;;;;;;;;;;10423671;28;20105;-85
2021/07/07 11:12:57;;;;;;;2.70;1.85;;;;;;;;;;10457442;28;20041;-83
2021/07/07 11:17:59;;;;;;;3.20;1.80;;;;;;;;;;10438088;28;20056;-83
2021/07/07 11:22:59;;;;;;;4.13;2.30;;;;;;;;;;10441360;28;20049;-81
2021/07/07 11:28:01;;;;;;;5.75;1.75;;;;;;;;;;10440495;28;20026;-82
2021/07/07 11:33:09;;;;;;;4.07;2.00;;;;;;;;;;10420037;28;20030;-82
2021/07/07 11:38:31;;;;;;;4.63;1.90;;;;;;;;;;10431802;28;20028;-83
2021/07/07 11:43:56;;;;;;;5.82;2.10;;;;;;;;;;10430855;28;20033;-83
2021/07/07 11:49:17;;;;;;;5.50;2.03;;;;;;;;;;10359293;28;20038;-83
2021/07/07 11:54:22;;;;;;;5.78;1.92;;;;;;;;;;10434998;28;20029;-84
2021/07/07 11:59:29;;;;;;;5.95;2.03;;;;;;;;;;10452321;28;20036;-85
2021/07/07 12:10:32;;;;;;;4.93;2.03;;;;;;;;;;10455747;28;20017;-85
2021/07/07 12:15:33;;;;;;;3.05;1.90;;;;;;;;;;10435631;28;20017;-84
2021/07/07 12:20:36;;;;;;;9.43;5.97;;;;;;;;;;10432692;28;20057;-84
2021/07/07 12:26:12;;;;;;;7.30;1.90;;;;;;;;;;10416035;28;20021;-82
2021/07/07 12:31:17;;;;;;;3.85;2.40;;;;;;;;;;10248869;28;20029;-83
2021/07/07 12:36:22;;;;;;;5.70;2.53;;;;;;;;;;10414165;28;20052;-83
2021/07/07 12:41:33;;;;;;;4.40;1.73;;;;;;;;;;10414966;28;20045;-82
2021/07/07 12:46:55;;;;;;;5.22;2.08;;;;;;;;;;10433527;28;20029;-80
2021/07/07 12:52:15;;;;;;;3.95;2.13;;;;;;;;;;10426040;28;20025;-83
2021/07/07 12:57:16;;;;;;;3.70;1.63;;;;;;;;;;10416408;28;20032;-83
2021/07/07 13:02:17;;;;;;;5.50;2.50;;;;;;;;;;10414992;28;20403;-83
2021/07/07 13:07:22;;;;;;;4.30;2.70;;;;;;;;;;10414635;28;20117;-83
2021/07/07 13:12:27;;;;;;;6.50;2.10;;;;;;;;;;10416111;28;20029;-83
2021/07/07 13:17:30;;;;;;;3.05;1.85;;;;;;;;;;10414217;28;20048;-83
2021/07/07 13:22:32;;;;;;;5.32;2.63;;;;;;;;;;10413321;28;20049;-83
2021/07/07 13:27:36;;;;;;;4.28;2.15;;;;;;;;;;10413122;28;20037;-83
2021/07/07 13:32:48;;;;;;;4.90;1.98;;;;;;;;;;10416010;28;20101;-83
2021/07/07 13:37:49;;;;;;;5.03;2.05;;;;;;;;;;10415348;28;20032;-84
2021/07/07 13:42:50;;;;;;;4.75;1.50;;;;;;;;;;10418207;28;20057;-84
2021/07/07 13:47:50;;;;;;;3.55;2.00;;;;;;;;;;10422368;28;20074;-84
2021/07/07 13:52:51;;;;;;;5.13;2.50;;;;;;;;;;10421092;28;20152;-84
2021/07/07 13:57:52;;;;;;;4.45;2.55;;;;;;;;;;10437064;28;20030;-84
2021/07/07 14:02:53;;;;;;;3.85;1.95;;;;;;;;;;10424263;28;20032;-83
2021/07/07 14:07:54;;;;;;;3.17;1.90;;;;;;;;;;10438467;28;20033;-84
2021/07/07 14:12:55;;;;;;;3.55;2.38;;;;;;;;;;10422529;28;20029;-86
2021/07/07 14:17:56;;;;;;;3.83;1.70;;;;;;;;;;10430077;28;20037;-84
2021/07/07 14:22:57;;;;;;;3.67;1.83;;;;;;;;;;10426870;28;20105;-83
2021/07/07 14:27:58;;;;;;;4.38;1.75;;;;;;;;;;10426345;28;20095;-84
2021/07/07 14:33:00;;;;;;;3.90;1.63;;;;;;;;;;10425393;28;20398;-83
2021/07/07 14:38:01;;;;;;;2.90;1.73;;;;;;;;;;10424572;28;20104;-83
2021/07/07 14:43:02;;;;;;;3.65;1.60;;;;;;;;;;10423152;28;20096;-83
2021/07/07 14:48:03;;;;;;;3.35;1.50;;;;;;;;;;10422627;28;20072;-83
2021/07/07 14:53:04;;;;;;;3.08;1.70;;;;;;;;;;10423242;28;20033;-85
2021/07/07 14:58:06;;;;;;;5.70;2.10;;;;;;;;;;10422714;28;20107;-83
2021/07/07 15:03:08;;;;;;;3.42;1.50;;;;;;;;;;10423870;28;20120;-82
2021/07/07 15:08:09;;;;;;;4.07;1.73;;;;;;;;;;10425358;28;20071;-82
2021/07/07 15:13:10;;;;;;;3.83;2.17;;;;;;;;;;10421161;28;20014;-83
2021/07/07 15:18:11;;;;;;;4.65;2.13;;;;;;;;;;10422375;28;20125;-83
2021/07/07 15:23:12;;;;;;;3.35;2.20;;;;;;;;;;10422364;28;20033;-83
2021/07/07 15:28:13;;;;;;;2.95;1.95;;;;;;;;;;10422251;28;20026;-82
2021/07/07 15:33:14;;;;;;;4.68;2.65;;;;;;;;;;10418951;28;20026;-83
2021/07/07 15:38:15;;;;;;;4.70;2.20;;;;;;;;;;10419658;28;20179;-84
2021/07/07 15:43:16;;;;;;;3.03;1.60;;;;;;;;;;10419151;28;20029;-83
2021/07/07 15:48:17;;;;;;;2.95;1.58;;;;;;;;;;10421000;28;20116;-84
2021/07/07 15:53:18;;;;;;;3.13;1.60;;;;;;;;;;10442522;28;20029;-83
2021/07/07 15:58:19;;;;;;;4.40;1.85;;;;;;;;;;10421522;28;20032;-82
2021/07/07 16:03:20;;;;;;;5.25;1.88;;;;;;;;;;10420141;28;20048;-83
2021/07/07 16:08:21;;;;;;;2.85;1.67;;;;;;;;;;10422145;28;20021;-84
2021/07/07 16:13:22;;;;;;;3.47;1.58;;;;;;;;;;10414994;28;20025;-84
2021/07/07 16:18:23;;;;;;;2.83;1.30;;;;;;;;;;10416805;28;20045;-84
2021/07/07 16:23:24;;;;;;;3.17;1.63;;;;;;;;;;10417986;28;20037;-85
2021/07/07 16:28:25;;;;;;;4.10;1.50;;;;;;;;;;10428004;28;20025;-85
2021/07/07 16:33:28;;;;;;;3.10;1.45;;;;;;;;;;10406478;28;20124;-87
2021/07/07 16:38:30;;;;;;;4.07;1.63;;;;;;;;;;10402883;28;20113;-87
2021/07/07 16:43:31;;;;;;;3.45;1.55;;;;;;;;;;10408544;28;20056;-87
2021/07/07 16:48:43;;;;;;;3.95;2.10;;;;;;;;;;10402639;28;20104;-87
2021/07/07 16:53:47;;;;;;;2.88;1.45;;;;;;;;;;10399831;28;20119;-87
2021/07/07 16:58:48;;;;;;;2.70;1.83;;;;;;;;;;10403651;28;20033;-87
2021/07/07 17:03:49;;;;;;;2.60;1.30;;;;;;;;;;10402451;28;20499;-87
2021/07/07 17:08:50;;;;;;;2.78;1.55;;;;;;;;;;10403886;28;20120;-87
2021/07/07 17:13:57;;;;;;;3.53;1.80;;;;;;;;;;10402212;28;20136;-87
2021/07/07 17:18:59;;;;;;;3.05;1.35;;;;;;;;;;10402424;28;20472;-87
2021/07/07 17:24:03;;;;;;;3.03;1.50;;;;;;;;;;10405787;28;20549;-87
2021/07/07 17:29:06;;;;;;;3.40;1.63;;;;;;;;;;10400046;28;20384;-86
2021/07/07 17:34:07;;;;;;;2.88;1.83;;;;;;;;;;10399872;28;20112;-87
2021/07/07 17:39:11;;;;;;;2.08;1.35;;;;;;;;;;10399933;28;20173;-89
2021/07/07 17:44:14;;;;;;;2.47;1.50;;;;;;;;;;10402321;28;20025;-88
2021/07/07 17:49:17;;;;;;;4.53;2.30;;;;;;;;;;10399360;28;20029;-89
2021/07/07 17:54:18;;;;;;;3.13;1.95;;;;;;;;;;10400849;28;20403;-88
2021/07/07 17:59:19;;;;;;;3.35;1.60;;;;;;;;;;10399999;28;20033;-88
2021/07/07 18:04:34;;;;;;;3.85;1.95;;;;;;;;;;10400106;28;20384;-88
2021/07/07 18:09:35;;;;;;;3.80;1.60;;;;;;;;;;10400455;28;20029;-89
2021/07/07 18:14:36;;;;;;;4.50;1.88;;;;;;;;;;10401151;28;20480;-89
2021/07/07 18:19:37;;;;;;;3.33;1.35;;;;;;;;;;10400740;28;20087;-89
2021/07/07 18:24:38;;;;;;;2.78;1.83;;;;;;;;;;10399980;28;20078;-89
2021/07/07 18:29:39;;;;;;;2.97;1.60;;;;;;;;;;10407906;28;20113;-89
2021/07/07 18:34:46;;;;;;;3.38;1.80;;;;;;;;;;10400139;28;20036;-89
2021/07/07 18:39:47;;;;;;;3.92;1.70;;;;;;;;;;10400172;28;20021;-89
2021/07/07 18:44:48;;;;;;;4.20;1.83;;;;;;;;;;10399247;28;20037;-89
2021/07/07 18:49:49;;;;;;;3.40;1.83;;;;;;;;;;10403535;28;20022;-89
2021/07/07 18:54:53;;;;;;;2.38;1.58;;;;;;;;;;10417323;28;20022;-88
2021/07/07 18:59:54;;;;;;;2.65;1.60;;;;;;;;;;10447696;28;20089;-89
2021/07/07 19:04:55;;;;;;;2.80;1.60;;;;;;;;;;10410134;28;20391;-89
2021/07/07 19:10:03;;;;;;;3.50;1.27;;;;;;;;;;10406827;28;20116;-89
2021/07/07 19:15:11;;;;;;;2.13;1.25;;;;;;;;;;10418260;28;20026;-89
2021/07/07 19:20:12;;;;;;;;;;;;;;;;;;10408422;28;20395;-90
2021/07/07 19:25:14;;;;;;;3.65;1.60;;;;;;;;;;10412862;28;19916;-89
2021/07/07 19:30:16;;;;;;;2.40;1.50;;;;;;;;;;10410957;28;20083;-89
2021/07/07 19:35:18;;;;;;;3.20;1.50;;;;;;;;;;10407103;28;20060;-89
2021/07/07 19:40:20;;;;;;;5.15;2.70;;;;;;;;;;10413671;28;20045;-89
2021/07/07 19:45:21;;;;;;;3.53;1.55;;;;;;;;;;10405045;28;20026;-89
2021/07/07 19:50:27;;;;;;;5.10;2.60;;;;;;;;;;10413778;28;20030;-88
2021/07/07 19:55:28;;;;;;;4.78;2.00;;;;;;;;;;10408517;28;20037;-88
2021/07/07 20:00:31;;;;;;;2.15;1.65;;;;;;;;;;10407961;28;20029;-88
